Time;durP1;ratioP1;P1;durP2;ratioP2;P2;SDS_P1;SDS_P2;PMS_P1;PMS_P2;Temp;Humidity;BMP_temperature;BMP_pressure;BME280_temperature;BME280_humidity;BME280_pressure;Samples;Min_cycle;Max_cycle;Signal;HPM_P1;HPM_P2
2024/03/20 00:00:56;;;;;;;;;;;;;;;3.70;46.96;94810.88;4185477;28;19982;-71
2024/03/20 00:02:57;;;;;;;;;;;;;;;3.80;47.03;94803.22;4162329;28;19943;-69
2024/03/20 00:04:57;;;;;;;;;;;;;;;3.75;47.21;94815.72;4183254;28;20020;-70
2024/03/20 00:06:59;;;;;;;;;;;;;;;3.75;46.76;94813.13;4194056;28;19974;-70
2024/03/20 00:09:01;;;;;;;;;;;;;;;3.71;46.65;94817.69;4184837;28;19921;-70
2024/03/20 00:11:01;;;;;;;;;;;;;;;3.75;46.84;94813.13;4180006;28;20007;-70
2024/03/20 00:13:02;;;;;;;;;;;;;;;3.87;46.75;94801.81;4193028;28;19921;-70
2024/03/20 00:15:03;;;;;;;;;;;;;;;3.89;46.82;94808.56;4188728;28;20014;-70
2024/03/20 00:17:04;;;;;;;;;;;;;;;3.87;46.38;94802.66;4186390;28;19921;-69
2024/03/20 00:19:05;;;;;;;;;;;;;;;3.88;47.00;94813.84;4192171;28;19928;-71
2024/03/20 00:21:06;;;;;;;;;;;;;;;3.80;47.19;94816.19;4177884;28;20161;-71
2024/03/20 00:23:07;;;;;;;;;;;;;;;3.70;47.22;94813.47;4187200;28;19987;-71
2024/03/20 00:25:09;;;;;;;;;;;;;;;3.73;46.88;94817.59;4188273;28;20444;-72
2024/03/20 00:27:10;;;;;;;;;;;;;;;3.72;47.42;94813.31;4180719;28;19921;-70
2024/03/20 00:29:10;;;;;;;;;;;;;;;3.71;47.15;94812.50;4187040;28;20025;-72
2024/03/20 00:31:11;;;;;;;;;;;;;;;3.66;47.37;94814.63;4186080;28;19936;-73
2024/03/20 00:33:12;;;;;;;;;;;;;;;3.58;47.22;94807.41;4176386;28;19925;-74
2024/03/20 00:35:12;;;;;;;;;;;;;;;3.53;47.24;94821.63;4175820;28;20317;-71
2024/03/20 00:37:13;;;;;;;;;;;;;;;3.43;47.76;94811.13;4187153;28;19921;-69
2024/03/20 00:39:14;;;;;;;;;;;;;;;3.40;47.96;94819.13;4184308;28;19920;-68
2024/03/20 00:41:14;;;;;;;;;;;;;;;3.47;48.32;94805.63;4195598;28;19971;-69
2024/03/20 00:43:15;;;;;;;;;;;;;;;3.49;47.85;94808.91;4195783;28;20366;-70
2024/03/20 00:45:17;;;;;;;;;;;;;;;3.57;47.73;94810.97;4174300;28;19928;-70
2024/03/20 00:47:18;;;;;;;;;;;;;;;3.64;47.35;94811.31;4177657;28;19947;-70
2024/03/20 00:49:19;;;;;;;;;;;;;;;3.44;48.00;94810.19;4193267;28;19971;-72
2024/03/20 00:51:20;;;;;;;;;;;;;;;3.49;48.13;94814.09;4191685;28;19924;-71
2024/03/20 00:53:21;;;;;;;;;;;;;;;3.50;48.15;94809.75;4193266;28;19920;-70
2024/03/20 00:55:22;;;;;;;;;;;;;;;3.58;47.72;94807.41;4174910;28;19921;-71
2024/03/20 00:57:24;;;;;;;;;;;;;;;3.53;48.13;94813.84;4189470;28;19935;-71
2024/03/20 00:59:25;;;;;;;;;;;;;;;3.45;48.17;94812.66;4195807;28;19924;-69
2024/03/20 01:01:25;;;;;;;;;;;;;;;3.40;47.93;94812.19;4200416;28;20046;-70
2024/03/20 01:03:26;;;;;;;;;;;;;;;3.42;48.46;94814.66;4195603;28;19955;-72
2024/03/20 01:05:27;;;;;;;;;;;;;;;3.44;48.41;94820.53;4188872;28;19920;-71
2024/03/20 01:07:28;;;;;;;;;;;;;;;3.36;48.47;94812.53;4185820;28;20007;-71
2024/03/20 01:09:29;;;;;;;;;;;;;;;3.36;48.46;94809.94;4178537;28;19943;-70
2024/03/20 01:11:30;;;;;;;;;;;;;;;3.37;48.42;94809.81;4181766;28;19924;-71
2024/03/20 01:13:32;;;;;;;;;;;;;;;3.31;48.64;94806.84;4186532;28;20367;-69
2024/03/20 01:15:35;;;;;;;;;;;;;;;3.23;48.96;94810.84;4191060;28;19924;-69
2024/03/20 01:17:36;;;;;;;;;;;;;;;3.26;49.02;94812.38;4184676;28;19931;-69
2024/03/20 01:19:37;;;;;;;;;;;;;;;3.33;49.25;94807.56;4195110;28;19929;-71
2024/03/20 01:21:37;;;;;;;;;;;;;;;3.33;48.84;94807.56;4194632;28;19920;-70
2024/03/20 01:23:38;;;;;;;;;;;;;;;3.37;48.62;94807.22;4194031;28;19959;-70
2024/03/20 01:25:41;;;;;;;;;;;;;;;3.40;48.41;94799.25;4193209;28;19920;-71
2024/03/20 01:27:41;;;;;;;;;;;;;;;3.40;48.51;94798.41;4192456;28;19921;-70
2024/03/20 01:29:42;;;;;;;;;;;;;;;3.35;48.45;94800.50;4179744;28;19983;-70
2024/03/20 01:31:44;;;;;;;;;;;;;;;3.28;49.08;94803.53;4193007;28;20317;-71
2024/03/20 01:33:45;;;;;;;;;;;;;;;3.36;48.86;94805.59;4194739;28;19931;-71
2024/03/20 01:35:45;;;;;;;;;;;;;;;3.36;48.19;94807.34;4194956;28;20310;-70
2024/03/20 01:37:46;;;;;;;;;;;;;;;3.29;49.08;94814.72;4187039;28;20485;-70
2024/03/20 01:39:46;;;;;;;;;;;;;;;3.28;48.88;94806.13;4191602;28;20371;-70
2024/03/20 01:41:47;;;;;;;;;;;;;;;3.27;48.67;94809.69;4177880;28;19920;-71
2024/03/20 01:43:51;;;;;;;;;;;;;;;3.27;48.70;94812.28;4194507;28;20339;-69
2024/03/20 01:45:52;;;;;;;;;;;;;;;3.30;48.69;94808.63;4193956;28;19925;-69
2024/03/20 01:47:53;;;;;;;;;;;;;;;3.31;49.08;94812.84;4195487;28;19928;-68
2024/03/20 01:49:54;;;;;;;;;;;;;;;3.26;48.59;94810.59;4193450;28;20209;-70
2024/03/20 01:51:55;;;;;;;;;;;;;;;3.29;48.47;94801.78;4162443;28;19925;-69
2024/03/20 01:53:59;;;;;;;;;;;;;;;3.30;48.64;94803.44;4193741;28;20017;-71
2024/03/20 01:56:01;;;;;;;;;;;;;;;3.28;48.50;94806.13;4194792;28;19981;-71
2024/03/20 01:58:02;;;;;;;;;;;;;;;3.34;49.13;94802.28;4193664;28;19970;-73
2024/03/20 02:00:03;;;;;;;;;;;;;;;3.33;49.04;94799.78;4179969;28;19982;-72
2024/03/20 02:02:04;;;;;;;;;;;;;;;3.22;48.69;94796.22;4189692;28;19920;-71
2024/03/20 02:04:05;;;;;;;;;;;;;;;3.25;48.82;94798.59;4196518;28;19920;-71
2024/03/20 02:06:06;;;;;;;;;;;;;;;3.23;48.99;94795.31;4177362;28;19921;-71
2024/03/20 02:08:07;;;;;;;;;;;;;;;3.22;48.82;94796.22;4178135;28;20410;-69
2024/03/20 02:10:08;;;;;;;;;;;;;;;3.17;48.60;94800.91;4203169;28;19963;-70
2024/03/20 02:12:09;;;;;;;;;;;;;;;3.18;48.96;94799.97;4191643;28;19920;-71
2024/03/20 02:14:10;;;;;;;;;;;;;;;3.14;49.27;94800.31;4184825;28;19983;-69
2024/03/20 02:16:11;;;;;;;;;;;;;;;3.09;49.30;94811.00;4176328;28;19929;-69
2024/03/20 02:18:12;;;;;;;;;;;;;;;3.02;49.48;94815.78;4182278;28;19920;-70
2024/03/20 02:20:13;;;;;;;;;;;;;;;2.96;50.01;94808.47;4193881;28;20057;-71
2024/03/20 02:22:14;;;;;;;;;;;;;;;3.02;49.70;94807.22;4184499;28;19920;-70
2024/03/20 02:24:17;;;;;;;;;;;;;;;3.07;49.75;94812.88;4187795;28;19936;-71
2024/03/20 02:26:17;;;;;;;;;;;;;;;2.95;49.54;94812.00;4192960;28;20415;-71
2024/03/20 02:28:18;;;;;;;;;;;;;;;3.01;49.54;94814.16;4185287;28;19995;-68
2024/03/20 02:30:19;;;;;;;;;;;;;;;2.96;50.24;94807.66;4192579;28;19981;-69
2024/03/20 02:32:19;;;;;;;;;;;;;;;2.98;49.68;94811.78;4191075;28;20304;-69
2024/03/20 02:34:20;;;;;;;;;;;;;;;3.03;50.08;94806.25;4170761;28;20369;-70
2024/03/20 02:36:21;;;;;;;;;;;;;;;2.92;49.90;94804.44;4204774;28;19920;-70
2024/03/20 02:38:26;;;;;;;;;;;;;;;2.99;50.29;94810.00;4194334;28;20013;-70
2024/03/20 02:40:27;;;;;;;;;;;;;;;2.98;50.37;94816.13;4194690;28;19931;-67
2024/03/20 02:42:27;;;;;;;;;;;;;;;2.95;50.42;94814.59;4184687;28;19921;-71
2024/03/20 02:44:28;;;;;;;;;;;;;;;2.97;50.40;94817.91;4191171;28;20400;-71
2024/03/20 02:46:29;;;;;;;;;;;;;;;3.09;50.18;94821.34;4192967;28;19924;-72
2024/03/20 02:48:29;;;;;;;;;;;;;;;3.12;49.98;94823.75;4164465;28;20419;-70
2024/03/20 02:50:30;;;;;;;;;;;;;;;3.14;49.81;94821.00;4194089;28;20611;-71
2024/03/20 02:52:31;;;;;;;;;;;;;;;3.13;50.19;94821.97;4193977;28;19924;-70
2024/03/20 02:54:31;;;;;;;;;;;;;;;3.05;50.07;94818.19;4193630;28;20286;-71
2024/03/20 02:56:32;;;;;;;;;;;;;;;3.10;50.27;94820.44;4186633;28;20011;-71
2024/03/20 02:58:33;;;;;;;;;;;;;;;3.12;50.53;94821.16;4189677;28;19970;-71
2024/03/20 03:00:33;;;;;;;;;;;;;;;3.16;50.33;94816.56;4181620;28;20019;-71
2024/03/20 03:02:34;;;;;;;;;;;;;;;3.04;50.70;94818.28;4174188;28;19999;-71
2024/03/20 03:04:35;;;;;;;;;;;;;;;3.04;50.80;94815.69;4179041;28;19931;-71
2024/03/20 03:06:36;;;;;;;;;;;;;;;3.00;50.78;94822.03;4189837;28;19924;-72
2024/03/20 03:08:37;;;;;;;;;;;;;;;3.03;50.96;94821.78;4188618;28;20006;-72
2024/03/20 03:10:37;;;;;;;;;;;;;;;3.01;50.71;94827.09;4191857;28;19970;-71
2024/03/20 03:12:38;;;;;;;;;;;;;;;2.98;51.29;94829.06;4193335;28;20515;-71
2024/03/20 03:14:39;;;;;;;;;;;;;;;3.01;51.06;94829.69;4193730;28;19944;-71
2024/03/20 03:16:39;;;;;;;;;;;;;;;2.97;50.73;94830.00;4192113;28;19924;-71
2024/03/20 03:18:40;;;;;;;;;;;;;;;2.90;51.21;94829.59;4181373;28;20466;-71
2024/03/20 03:20:41;;;;;;;;;;;;;;;2.87;51.23;94828.06;4205366;28;20066;-70
2024/03/20 03:22:42;;;;;;;;;;;;;;;2.93;51.11;94834.56;4209834;28;19982;-70
2024/03/20 03:24:42;;;;;;;;;;;;;;;2.90;50.95;94828.78;4193884;28;19920;-69
2024/03/20 03:26:43;;;;;;;;;;;;;;;2.89;51.54;94833.16;4192378;28;19920;-70
2024/03/20 03:28:44;;;;;;;;;;;;;;;2.84;51.66;94833.47;4194277;28;19928;-72
2024/03/20 03:30:45;;;;;;;;;;;;;;;2.91;51.36;94838.22;4182772;28;19920;-70
2024/03/20 03:32:46;;;;;;;;;;;;;;;2.87;51.24;94838.41;4193126;28;19927;-71
2024/03/20 03:34:47;;;;;;;;;;;;;;;2.80;51.64;94837.22;4193792;28;19924;-70
2024/03/20 03:36:48;;;;;;;;;;;;;;;2.89;51.77;94845.25;4160807;28;19971;-68
2024/03/20 03:38:49;;;;;;;;;;;;;;;2.79;52.14;94842.47;4184976;28;19924;-68
2024/03/20 03:40:50;;;;;;;;;;;;;;;2.83;51.73;94847.31;4190658;28;19927;-69
2024/03/20 03:42:51;;;;;;;;;;;;;;;2.83;52.05;94844.75;4163949;28;19932;-69
2024/03/20 03:44:52;;;;;;;;;;;;;;;2.82;52.36;94850.03;4191807;28;20362;-72
2024/03/20 03:46:52;;;;;;;;;;;;;;;2.82;51.70;94845.69;4191549;28;20025;-71
2024/03/20 03:48:53;;;;;;;;;;;;;;;2.87;52.08;94853.13;4193883;28;19920;-70
2024/03/20 03:50:54;;;;;;;;;;;;;;;2.79;52.19;94855.41;4172146;28;19924;-71
2024/03/20 03:52:54;;;;;;;;;;;;;;;2.82;51.88;94856.03;4189356;28;19928;-69
2024/03/20 03:54:55;;;;;;;;;;;;;;;2.82;51.79;94861.22;4173335;28;19921;-70
2024/03/20 03:56:56;;;;;;;;;;;;;;;2.75;51.80;94866.91;4189617;28;19920;-72
2024/03/20 03:58:56;;;;;;;;;;;;;;;2.67;51.85;94859.72;4188634;28;19920;-71
2024/03/20 04:00:57;;;;;;;;;;;;;;;2.75;52.15;94865.16;4185351;28;19990;-72
2024/03/20 04:02:58;;;;;;;;;;;;;;;2.75;52.49;94859.16;4193390;28;19966;-71
2024/03/20 04:04:58;;;;;;;;;;;;;;;2.84;51.89;94863.69;4190453;28;19920;-72
2024/03/20 04:06:59;;;;;;;;;;;;;;;2.79;52.04;94861.41;4181192;28;19921;-70
2024/03/20 04:08:59;;;;;;;;;;;;;;;2.82;51.88;94865.56;4181450;28;20017;-71
2024/03/20 04:11:00;;;;;;;;;;;;;;;2.78;52.16;94858.97;4188842;28;20070;-71
2024/03/20 04:13:02;;;;;;;;;;;;;;;2.81;51.84;94861.31;4179714;28;19962;-71
2024/03/20 04:15:03;;;;;;;;;;;;;;;2.81;52.06;94864.72;4177413;28;19921;-70
2024/03/20 04:17:03;;;;;;;;;;;;;;;2.76;52.27;94866.00;4178231;28;19921;-72
2024/03/20 04:19:05;;;;;;;;;;;;;;;2.76;52.02;94868.59;4186265;28;19967;-73
2024/03/20 04:21:06;;;;;;;;;;;;;;;2.73;51.90;94867.03;4193021;28;19951;-69
2024/03/20 04:23:07;;;;;;;;;;;;;;;2.77;52.18;94870.22;4192491;28;20317;-70
2024/03/20 04:25:08;;;;;;;;;;;;;;;2.80;51.86;94860.50;4180758;28;19970;-72
2024/03/20 04:27:08;;;;;;;;;;;;;;;2.83;51.99;94872.38;4187604;28;19921;-69
2024/03/20 04:29:10;;;;;;;;;;;;;;;2.80;51.68;94873.44;4177937;28;20557;-72
2024/03/20 04:31:11;;;;;;;;;;;;;;;2.82;51.76;94870.75;4183397;28;19935;-73
2024/03/20 04:33:12;;;;;;;;;;;;;;;2.83;51.67;94873.19;4193909;28;20423;-71
2024/03/20 04:35:13;;;;;;;;;;;;;;;2.74;51.85;94873.84;4176392;28;19932;-72
2024/03/20 04:37:14;;;;;;;;;;;;;;;2.77;52.05;94870.22;4192684;28;20362;-69
2024/03/20 04:39:17;;;;;;;;;;;;;;;2.83;51.95;94868.03;4182485;28;19960;-69
2024/03/20 04:41:22;;;;;;;;;;;;;;;2.91;51.69;94872.69;4177082;28;19920;-69
2024/03/20 04:43:22;;;;;;;;;;;;;;;2.85;51.73;94875.69;4183080;28;19927;-69
2024/03/20 04:45:23;;;;;;;;;;;;;;;2.91;51.71;94884.78;4170672;28;19924;-70
2024/03/20 04:47:24;;;;;;;;;;;;;;;2.90;51.76;94893.47;4197003;28;20425;-71
2024/03/20 04:49:25;;;;;;;;;;;;;;;2.98;51.83;94892.00;4192352;28;19921;-69
2024/03/20 04:51:26;;;;;;;;;;;;;;;3.00;51.88;94894.50;4191935;28;20403;-70
2024/03/20 04:53:26;;;;;;;;;;;;;;;3.06;51.73;94891.47;4192899;28;19925;-69
2024/03/20 04:55:27;;;;;;;;;;;;;;;2.97;51.67;94895.53;4188475;28;20007;-70
2024/03/20 04:57:27;;;;;;;;;;;;;;;2.92;52.06;94895.00;4172204;28;19920;-69
2024/03/20 04:59:28;;;;;;;;;;;;;;;3.02;51.85;94900.38;4188374;28;20067;-71
2024/03/20 05:01:29;;;;;;;;;;;;;;;3.04;51.70;94896.75;4175075;28;19920;-70
2024/03/20 05:03:29;;;;;;;;;;;;;;;3.09;51.83;94904.19;4180220;28;19948;-72
2024/03/20 05:05:30;;;;;;;;;;;;;;;3.15;51.42;94906.34;4187595;28;19928;-71
2024/03/20 05:07:31;;;;;;;;;;;;;;;3.18;51.56;94906.09;4181550;28;19924;-72
2024/03/20 05:09:31;;;;;;;;;;;;;;;3.22;51.34;94906.72;4182926;28;19954;-70
2024/03/20 05:11:32;;;;;;;;;;;;;;;3.24;51.20;94913.44;4198391;28;19930;-71
2024/03/20 05:13:33;;;;;;;;;;;;;;;3.25;51.41;94911.72;4190433;28;19964;-70
2024/03/20 05:15:37;;;;;;;;;;;;;;;3.34;50.78;94918.81;4180147;28;20500;-70
2024/03/20 05:17:38;;;;;;;;;;;;;;;3.30;50.97;94917.38;4185019;28;19920;-70
2024/03/20 05:19:39;;;;;;;;;;;;;;;3.30;51.30;94917.38;4184381;28;19931;-73
2024/03/20 05:21:40;;;;;;;;;;;;;;;3.30;50.77;94924.31;4180865;28;19927;-70
2024/03/20 05:23:40;;;;;;;;;;;;;;;3.39;50.81;94921.06;4192705;28;19925;-71
2024/03/20 05:25:41;;;;;;;;;;;;;;;3.40;50.29;94922.69;4187699;28;19931;-71
2024/03/20 05:27:42;;;;;;;;;;;;;;;3.44;50.61;94922.41;4176779;28;20341;-71
2024/03/20 05:29:43;;;;;;;;;;;;;;;3.55;50.94;94925.97;4189145;28;19924;-73
2024/03/20 05:31:44;;;;;;;;;;;;;;;3.64;50.07;94920.94;4187661;28;19920;-72
2024/03/20 05:33:45;;;;;;;;;;;;;;;3.65;50.40;94927.78;4185925;28;19921;-72
2024/03/20 05:35:45;;;;;;;;;;;;;;;3.77;50.18;94930.44;4190985;28;19927;-73
2024/03/20 05:37:46;;;;;;;;;;;;;;;3.85;50.14;94934.13;4194607;28;20281;-72
2024/03/20 05:39:47;;;;;;;;;;;;;;;3.91;49.95;94930.22;4196300;28;20442;-71
2024/03/20 05:41:48;;;;;;;;;;;;;;;3.99;49.69;94940.03;4195666;28;19920;-70
2024/03/20 05:43:48;;;;;;;;;;;;;;;3.99;49.31;94934.84;4177937;28;19925;-71
2024/03/20 05:45:50;;;;;;;;;;;;;;;3.87;49.91;94945.19;4188046;28;19920;-71
2024/03/20 05:47:50;;;;;;;;;;;;;;;4.00;49.18;94939.94;4186902;28;20035;-71
2024/03/20 05:49:51;;;;;;;;;;;;;;;4.06;49.18;94946.41;4185365;28;19928;-71
2024/03/20 05:51:52;;;;;;;;;;;;;;;4.10;49.75;94951.25;4167335;28;19925;-70
2024/03/20 05:53:53;;;;;;;;;;;;;;;4.18;49.25;94948.13;4194888;28;20412;-72
2024/03/20 05:55:54;;;;;;;;;;;;;;;4.36;48.83;94951.09;4189149;28;20361;-72
2024/03/20 05:57:55;;;;;;;;;;;;;;;4.28;49.36;94949.09;4179022;28;19928;-71
2024/03/20 05:59:56;;;;;;;;;;;;;;;4.21;49.88;94954.81;4195922;28;19920;-72
2024/03/20 06:01:57;;;;;;;;;;;;;;;4.18;49.88;94960.25;4193730;28;19970;-71
2024/03/20 06:03:58;;;;;;;;;;;;;;;4.34;49.55;94959.94;4192375;28;19921;-72
2024/03/20 06:05:59;;;;;;;;;;;;;;;4.34;49.65;94960.75;4190734;28;20441;-73
2024/03/20 06:08:00;;;;;;;;;;;;;;;4.45;48.49;94963.38;4195527;28;19920;-71
2024/03/20 06:10:00;;;;;;;;;;;;;;;4.52;49.03;94958.56;4186753;28;19993;-71
2024/03/20 06:12:04;;;;;;;;;;;;;;;4.35;49.26;94967.59;4191711;28;20430;-70
2024/03/20 06:14:04;;;;;;;;;;;;;;;4.45;48.90;94962.53;4179048;28;20394;-71
2024/03/20 06:16:06;;;;;;;;;;;;;;;4.11;49.41;94962.47;4177127;28;19921;-72
2024/03/20 06:18:07;;;;;;;;;;;;;;;4.04;50.48;94975.06;4181584;28;19998;-72
2024/03/20 06:20:08;;;;;;;;;;;;;;;3.77;50.70;94969.31;4180964;28;19920;-73
2024/03/20 06:22:09;;;;;;;;;;;;;;;3.81;51.04;94984.50;4191256;28;19920;-71
2024/03/20 06:24:10;;;;;;;;;;;;;;;3.87;50.63;94978.88;4184917;28;19943;-73
2024/03/20 06:26:10;;;;;;;;;;;;;;;4.14;50.92;94976.97;4177128;28;20011;-70
2024/03/20 06:28:13;;;;;;;;;;;;;;;4.25;49.89;94982.19;4185747;28;20042;-70
2024/03/20 06:30:15;;;;;;;;;;;;;;;4.38;49.86;94982.09;4186883;28;19924;-72
2024/03/20 06:32:16;;;;;;;;;;;;;;;4.30;49.78;94987.84;4185017;28;19921;-70
2024/03/20 06:34:16;;;;;;;;;;;;;;;4.25;50.59;94985.59;4174442;28;20306;-72
2024/03/20 06:36:17;;;;;;;;;;;;;;;4.21;50.73;94996.31;4191263;28;20342;-71
2024/03/20 06:38:18;;;;;;;;;;;;;;;4.47;49.94;94986.59;4177768;28;20150;-72
2024/03/20 06:40:19;;;;;;;;;;;;;;;4.48;49.71;94991.69;4193915;28;19942;-72
2024/03/20 06:42:22;;;;;;;;;;;;;;;4.57;50.33;94997.94;4182866;28;19925;-72
2024/03/20 06:44:23;;;;;;;;;;;;;;;4.72;49.95;94996.78;4187174;28;19962;-71
2024/03/20 06:46:25;;;;;;;;;;;;;;;4.21;51.05;95012.69;4172606;28;19920;-71
2024/03/20 06:48:28;;;;;;;;;;;;;;;3.31;53.44;95009.63;4194361;28;20422;-69
2024/03/20 06:50:28;;;;;;;;;;;;;;;3.06;54.31;95013.13;4184211;28;19982;-72
2024/03/20 06:52:38;;;;;;;;;;;;;;;3.11;54.07;95020.56;4184621;28;20353;-73
2024/03/20 06:54:42;;;;;;;;;;;;;;;3.07;54.93;95019.94;4187607;28;19928;-70
2024/03/20 06:56:48;;;;;;;;;;;;;;;3.25;54.97;95012.69;4190064;28;19971;-73
2024/03/20 06:58:49;;;;;;;;;;;;;;;3.51;54.29;95021.22;4190478;28;19920;-72
2024/03/20 07:00:49;;;;;;;;;;;;;;;3.73;53.88;95017.91;4188213;28;19947;-72
2024/03/20 07:02:51;;;;;;;;;;;;;;;4.05;52.64;95018.19;4192322;28;19921;-72
2024/03/20 07:04:51;;;;;;;;;;;;;;;4.27;51.56;95016.63;4200402;28;20400;-73
2024/03/20 07:06:52;;;;;;;;;;;;;;;4.52;51.68;95020.81;4188188;28;19924;-71
2024/03/20 07:08:53;;;;;;;;;;;;;;;4.76;51.05;95020.75;4191475;28;20310;-71
2024/03/20 07:10:54;;;;;;;;;;;;;;;4.90;50.24;95025.75;4188058;28;19971;-70
2024/03/20 07:12:54;;;;;;;;;;;;;;;4.95;49.93;95027.13;4188933;28;19928;-70
2024/03/20 07:14:55;;;;;;;;;;;;;;;4.77;50.71;95026.75;4193203;28;19921;-74
2024/03/20 07:16:56;;;;;;;;;;;;;;;4.88;50.66;95024.19;4195951;28;19920;-75
2024/03/20 07:18:57;;;;;;;;;;;;;;;5.07;50.25;95026.19;4186468;28;19953;-71
2024/03/20 07:20:57;;;;;;;;;;;;;;;4.80;51.05;95026.56;4187775;28;19920;-72
2024/03/20 07:22:58;;;;;;;;;;;;;;;4.62;50.59;95032.16;4190509;28;19950;-70
2024/03/20 07:24:59;;;;;;;;;;;;;;;4.29;51.42;95030.31;4186053;28;19928;-71
2024/03/20 07:27:00;;;;;;;;;;;;;;;4.04;52.13;95037.28;4185561;28;19977;-73
2024/03/20 07:29:01;;;;;;;;;;;;;;;4.24;52.82;95032.41;4194158;28;19931;-72
2024/03/20 07:31:02;;;;;;;;;;;;;;;4.19;53.36;95040.50;4185066;28;19994;-73
2024/03/20 07:33:02;;;;;;;;;;;;;;;4.06;53.07;95043.16;4185856;28;19960;-73
2024/03/20 07:35:03;;;;;;;;;;;;;;;3.69;53.79;95032.84;4190759;28;19920;-71
2024/03/20 07:37:04;;;;;;;;;;;;;;;3.50;55.18;95040.25;4193406;28;19920;-70
2024/03/20 07:39:07;;;;;;;;;;;;;;;3.37;55.90;95034.28;4166618;28;19928;-71
2024/03/20 07:41:08;;;;;;;;;;;;;;;3.48;55.67;95024.00;4190975;28;20398;-70
2024/03/20 07:43:09;;;;;;;;;;;;;;;3.61;55.55;95019.59;4183543;28;19928;-72
2024/03/20 07:45:10;;;;;;;;;;;;;;;3.58;54.43;95034.56;4193484;28;19975;-72
2024/03/20 07:47:11;;;;;;;;;;;;;;;3.66;55.00;95024.47;4192373;28;19924;-71
2024/03/20 07:49:12;;;;;;;;;;;;;;;3.64;54.71;95022.00;4177101;28;20598;-72
2024/03/20 07:51:18;;;;;;;;;;;;;;;3.84;54.93;95023.16;4192448;28;19924;-70
2024/03/20 07:53:18;;;;;;;;;;;;;;;3.75;54.43;95039.38;4177782;28;19921;-71
2024/03/20 07:55:19;;;;;;;;;;;;;;;4.00;54.80;95016.84;4177499;28;19920;-69
2024/03/20 07:57:20;;;;;;;;;;;;;;;3.95;54.61;95022.38;4161405;28;19925;-70
2024/03/20 07:59:25;;;;;;;;;;;;;;;4.37;54.13;95027.16;4173814;28;19924;-71
2024/03/20 08:01:25;;;;;;;;;;;;;;;4.43;53.03;95032.72;4188978;28;19943;-71
2024/03/20 08:03:26;;;;;;;;;;;;;;;3.89;54.25;95033.19;4177298;28;19928;-72
2024/03/20 08:05:28;;;;;;;;;;;;;;;3.72;54.94;95044.75;4187684;28;20440;-74
2024/03/20 08:07:28;;;;;;;;;;;;;;;3.85;55.37;95035.19;4184038;28;20014;-71
2024/03/20 08:09:29;;;;;;;;;;;;;;;4.27;54.40;95033.00;4189665;28;19929;-70
2024/03/20 08:11:30;;;;;;;;;;;;;;;4.80;53.36;95029.97;4180355;28;19925;-72
2024/03/20 08:13:31;;;;;;;;;;;;;;;5.09;52.06;95040.72;4190815;28;19947;-73
2024/03/20 08:15:32;;;;;;;;;;;;;;;4.58;53.30;95029.91;4191636;28;19924;-72
2024/03/20 08:17:32;;;;;;;;;;;;;;;4.97;53.26;95015.72;4175909;28;19928;-70
2024/03/20 08:19:33;;;;;;;;;;;;;;;5.33;51.98;95016.41;4186949;28;19928;-72
2024/03/20 08:21:34;;;;;;;;;;;;;;;5.72;51.00;95009.00;4191282;28;20007;-72
2024/03/20 08:23:35;;;;;;;;;;;;;;;5.88;50.37;95006.03;4183500;28;19924;-72
2024/03/20 08:25:35;;;;;;;;;;;;;;;5.95;50.77;95002.84;4179502;28;19991;-72
2024/03/20 08:27:36;;;;;;;;;;;;;;;6.22;49.36;95016.34;4183183;28;20331;-71
2024/03/20 08:29:38;;;;;;;;;;;;;;;6.10;49.14;95005.97;4189734;28;20024;-71
2024/03/20 08:31:39;;;;;;;;;;;;;;;5.49;49.84;95018.66;4185449;28;20342;-73
2024/03/20 08:33:40;;;;;;;;;;;;;;;5.50;50.43;95015.91;4175115;28;19944;-72
2024/03/20 08:35:41;;;;;;;;;;;;;;;5.33;51.07;95004.25;4182165;28;19978;-72
2024/03/20 08:37:41;;;;;;;;;;;;;;;5.42;51.23;95004.47;4182227;28;20254;-71
2024/03/20 08:39:42;;;;;;;;;;;;;;;5.61;50.75;95004.66;4188841;28;19928;-72
2024/03/20 08:41:43;;;;;;;;;;;;;;;5.34;50.93;95011.09;4180491;28;20578;-71
2024/03/20 08:43:44;;;;;;;;;;;;;;;5.37;51.70;95007.41;4192377;28;19921;-72
2024/03/20 08:45:45;;;;;;;;;;;;;;;5.50;51.13;95007.28;4191137;28;19931;-73
2024/03/20 08:47:47;;;;;;;;;;;;;;;5.89;50.14;95008.53;4176509;28;20010;-72
2024/03/20 08:49:49;;;;;;;;;;;;;;;5.54;51.07;95003.50;4192137;28;20376;-73
2024/03/20 08:51:51;;;;;;;;;;;;;;;5.87;50.73;95000.00;4188248;28;19920;-72
2024/03/20 08:53:51;;;;;;;;;;;;;;;5.79;51.22;94998.97;4185586;28;20707;-73
2024/03/20 08:55:52;;;;;;;;;;;;;;;6.09;50.00;94993.94;4192693;28;19979;-71
2024/03/20 08:57:53;;;;;;;;;;;;;;;6.29;49.53;94997.50;4191017;28;19924;-74
2024/03/20 08:59:53;;;;;;;;;;;;;;;6.72;48.94;95003.56;4192644;28;19924;-69
2024/03/20 09:01:54;;;;;;;;;;;;;;;7.13;47.88;94983.59;4184466;28;20016;-72
2024/03/20 09:03:54;;;;;;;;;;;;;;;7.38;47.08;94996.19;4165333;28;19925;-72
2024/03/20 09:05:55;;;;;;;;;;;;;;;7.18;46.63;94997.06;4183580;28;19920;-71
2024/03/20 09:07:57;;;;;;;;;;;;;;;6.63;47.90;94997.34;4187741;28;19927;-71
2024/03/20 09:09:57;;;;;;;;;;;;;;;6.00;49.35;94997.28;4195250;28;19920;-73
2024/03/20 09:11:58;;;;;;;;;;;;;;;6.44;49.02;94986.78;4194438;28;20400;-72
2024/03/20 09:14:01;;;;;;;;;;;;;;;6.85;48.57;94995.53;4182483;28;20006;-72
2024/03/20 09:16:02;;;;;;;;;;;;;;;6.96;47.09;94993.66;4187191;28;19932;-70
2024/03/20 09:18:03;;;;;;;;;;;;;;;7.09;47.11;94992.63;4184906;28;19921;-73
2024/03/20 09:20:15;;;;;;;;;;;;;;;7.33;46.60;94987.91;4194958;28;19920;-72
2024/03/20 09:22:15;;;;;;;;;;;;;;;7.62;46.26;94989.81;4190375;28;19974;-73
2024/03/20 09:24:17;;;;;;;;;;;;;;;7.83;45.18;94994.94;4170360;28;20015;-71
2024/03/20 09:26:17;;;;;;;;;;;;;;;7.85;44.97;94989.56;4181245;28;19921;-74
2024/03/20 09:28:18;;;;;;;;;;;;;;;7.72;45.73;94982.84;4183813;28;19928;-74
2024/03/20 09:30:20;;;;;;;;;;;;;;;7.87;45.67;94982.41;4193989;28;20223;-71
2024/03/20 09:32:20;;;;;;;;;;;;;;;8.03;45.55;94987.13;4194673;28;19924;-72
2024/03/20 09:34:21;;;;;;;;;;;;;;;7.36;46.28;94984.25;4195700;28;19931;-72
2024/03/20 09:36:22;;;;;;;;;;;;;;;6.86;46.58;94982.41;4192846;28;19978;-71
2024/03/20 09:38:22;;;;;;;;;;;;;;;6.38;47.85;94975.09;4195772;28;19954;-71
2024/03/20 09:40:25;;;;;;;;;;;;;;;6.53;47.81;94973.84;4194141;28;20343;-71
2024/03/20 09:42:26;;;;;;;;;;;;;;;6.79;47.73;94968.22;4180102;28;20392;-71
2024/03/20 09:44:27;;;;;;;;;;;;;;;7.20;46.21;94965.66;4195219;28;19924;-72
2024/03/20 09:46:28;;;;;;;;;;;;;;;7.26;46.68;94972.97;4176630;28;19999;-70
2024/03/20 09:48:29;;;;;;;;;;;;;;;7.37;46.75;94965.03;4184350;28;19929;-72
2024/03/20 09:50:29;;;;;;;;;;;;;;;7.72;45.47;94954.16;4190661;28;19964;-70
2024/03/20 09:52:30;;;;;;;;;;;;;;;7.60;45.55;94955.22;4179201;28;19924;-72
2024/03/20 09:54:31;;;;;;;;;;;;;;;7.27;45.99;94958.97;4194771;28;19964;-72
2024/03/20 09:56:31;;;;;;;;;;;;;;;7.50;47.40;94951.75;4174053;28;19924;-70
2024/03/20 09:58:32;;;;;;;;;;;;;;;8.03;45.70;94950.59;4183849;28;19921;-72
2024/03/20 10:00:32;;;;;;;;;;;;;;;7.99;44.93;94968.31;4177389;28;20474;-72
2024/03/20 10:02:33;;;;;;;;;;;;;;;8.14;44.30;94972.16;4194110;28;20395;-72
2024/03/20 10:04:35;;;;;;;;;;;;;;;8.33;43.18;94950.44;4167430;28;19920;-70
2024/03/20 10:06:36;;;;;;;;;;;;;;;8.74;43.38;94952.88;4183474;28;19943;-72
2024/03/20 10:08:39;;;;;;;;;;;;;;;8.89;43.39;94948.03;4192780;28;20104;-70
2024/03/20 10:10:42;;;;;;;;;;;;;;;8.77;42.96;94950.78;4179196;28;20390;-71
2024/03/20 10:12:45;;;;;;;;;;;;;;;9.12;41.93;94941.47;4180250;28;19920;-71
2024/03/20 10:14:47;;;;;;;;;;;;;;;9.37;41.45;94942.56;4163060;28;20448;-72
2024/03/20 10:16:47;;;;;;;;;;;;;;;9.55;41.46;94944.41;4164550;28;19925;-72
2024/03/20 10:18:49;;;;;;;;;;;;;;;9.66;40.53;94944.22;4167943;28;19931;-71
2024/03/20 10:20:49;;;;;;;;;;;;;;;9.81;40.61;94939.31;4194900;28;19920;-71
2024/03/20 10:22:50;;;;;;;;;;;;;;;9.97;40.26;94936.84;4178890;28;20422;-72
2024/03/20 10:24:51;;;;;;;;;;;;;;;9.40;40.51;94942.31;4182908;28;19925;-74
2024/03/20 10:26:51;;;;;;;;;;;;;;;9.25;41.23;94943.75;4182454;28;19944;-74
2024/03/20 10:28:53;;;;;;;;;;;;;;;9.09;40.81;94933.09;4181956;28;19947;-71
2024/03/20 10:30:53;;;;;;;;;;;;;;;8.84;41.47;94939.78;4209149;28;19965;-72
2024/03/20 10:32:54;;;;;;;;;;;;;;;9.17;41.67;94936.63;4166836;28;19920;-70
2024/03/20 10:34:55;;;;;;;;;;;;;;;9.42;40.14;94934.28;4171319;28;19971;-71
2024/03/20 10:36:56;;;;;;;;;;;;;;;9.67;40.28;94926.72;4188533;28;19967;-70
2024/03/20 10:38:57;;;;;;;;;;;;;;;9.74;39.96;94925.97;4189310;28;19920;-70